GDL weather

Don Miguel Hidalgo Y Costilla International Airport
Guadalajara, Jalisco, Mexico

Public forecast

Using degrees Celsius for public forecast. Weather courtesy of forecast.io.

METAR (pilot weather report)

Retrieved 2019/04/26 04:42 UTC (33 minutes ago):

MMGL 260442Z 28006KT 10SM SCT300 24/00 A3016 RMK 8/002 AC

TAF (pilot weather forecast)

Forecast is more than 12 hours old.

Retrieved 2019/04/25 00:39 UTC (1 day ago):

TAF MMGL 252332Z 2600/2706 04005KT P6SM SCT100 BKN300 TX30/2621Z TN14/2612Z FM260400 00000KT P6SM SCT300 FM261800 26010KT P6SM SCT300 BECMG 2702/2703 00000KT